Time;durP1;ratioP1;P1;durP2;ratioP2;P2;SDS_P1;SDS_P2;PMS_P1;PMS_P2;Temp;Humidity;BMP_temperature;BMP_pressure;BME280_temperature;BME280_humidity;BME280_pressure;Samples;Min_cycle;Max_cycle;Signal;HPM_P1;HPM_P2
2021/08/05 00:02:23;;;;;;;7.63;6.83;;;15.00;99.90;;;;;;5033229;28;20197;-75
2021/08/05 00:04:49;;;;;;;7.03;6.30;;;15.00;99.90;;;;;;5034373;28;20175;-74
2021/08/05 00:07:14;;;;;;;6.27;5.67;;;15.00;99.90;;;;;;5034317;28;20692;-75
2021/08/05 00:09:43;;;;;;;8.37;7.67;;;14.90;99.90;;;;;;5034551;28;20186;-73
2021/08/05 00:12:12;;;;;;;7.47;6.70;;;15.00;99.90;;;;;;5034226;28;20236;-73
2021/08/05 00:14:38;;;;;;;7.70;7.00;;;15.00;99.90;;;;;;5034376;28;20167;-74
2021/08/05 00:17:04;;;;;;;7.13;6.53;;;15.00;99.90;;;;;;5034235;28;20206;-74
2021/08/05 00:19:30;;;;;;;7.83;6.40;;;15.00;99.90;;;;;;5034278;28;20244;-74
2021/08/05 00:21:55;;;;;;;7.00;6.30;;;15.00;99.90;;;;;;5034322;28;20194;-75
2021/08/05 00:24:21;;;;;;;7.73;5.77;;;15.00;99.90;;;;;;5032914;28;20217;-72
2021/08/05 00:26:47;;;;;;;6.70;5.90;;;15.10;99.90;;;;;;5034310;28;20170;-74
2021/08/05 00:29:12;;;;;;;6.20;4.87;;;15.10;99.90;;;;;;5032950;28;20258;-75
2021/08/05 00:31:38;;;;;;;5.80;5.10;;;15.00;99.90;;;;;;5034016;28;20178;-75
2021/08/05 00:34:04;;;;;;;5.77;5.30;;;15.00;99.90;;;;;;5034425;28;20181;-76
2021/08/05 00:36:29;;;;;;;5.00;4.60;;;15.10;99.90;;;;;;5034214;28;20205;-74
2021/08/05 00:38:55;;;;;;;4.80;4.30;;;15.00;99.90;;;;;;5033681;28;20210;-75
2021/08/05 00:41:20;;;;;;;5.83;4.07;;;15.00;99.90;;;;;;5033858;28;20633;-74
2021/08/05 00:43:46;;;;;;;4.43;4.03;;;14.90;99.90;;;;;;5033774;28;20678;-75
2021/08/05 00:46:15;;;;;;;4.77;3.87;;;14.90;99.90;;;;;;5033554;28;20333;-73
2021/08/05 00:48:41;;;;;;;5.17;4.63;;;15.00;99.90;;;;;;5033750;28;20209;-75
2021/08/05 00:51:07;;;;;;;5.13;4.30;;;14.90;99.90;;;;;;5033887;28;20167;-73
2021/08/05 00:53:32;;;;;;;4.67;4.00;;;15.00;99.90;;;;;;5033586;28;20181;-74
2021/08/05 00:55:58;;;;;;;5.50;3.73;;;15.10;99.90;;;;;;5033639;28;20179;-74
2021/08/05 00:58:24;;;;;;;5.17;4.13;;;15.00;99.90;;;;;;5033440;28;20577;-74
2021/08/05 01:00:55;;;;;;;4.63;4.03;;;15.00;99.90;;;;;;5033483;28;20173;-73
2021/08/05 01:03:26;;;;;;;5.07;4.10;;;15.00;99.90;;;;;;5033642;28;20200;-73
2021/08/05 01:06:03;;;;;;;5.40;4.90;;;14.90;99.90;;;;;;5032501;28;20182;-75
2021/08/05 01:08:31;;;;;;;5.30;4.70;;;14.90;99.90;;;;;;5033500;28;20205;-75
2021/08/05 01:11:15;;;;;;;7.30;4.70;;;14.80;99.90;;;;;;5032209;28;20720;-74
2021/08/05 01:13:52;;;;;;;6.20;5.10;;;14.80;99.90;;;;;;5026535;28;20253;-74
2021/08/05 01:16:22;;;;;;;5.30;4.40;;;14.70;99.90;;;;;;5032791;28;20191;-74
2021/08/05 01:18:49;;;;;;;5.13;4.73;;;14.70;99.90;;;;;;5033282;28;20204;-72
2021/08/05 01:21:33;;;;;;;6.00;5.40;;;14.70;99.90;;;;;;5033216;28;20610;-74
2021/08/05 01:24:06;;;;;;;6.17;5.47;;;14.80;99.90;;;;;;5033416;28;20178;-73
2021/08/05 01:26:47;;;;;;;6.20;4.50;;;14.90;99.90;;;;;;5033358;28;20173;-75
2021/08/05 01:29:16;;;;;;;7.53;5.03;;;14.90;99.90;;;;;;5032957;28;20224;-72
2021/08/05 01:31:43;;;;;;;6.27;5.00;;;15.00;99.90;;;;;;5033061;28;20256;-73
2021/08/05 01:34:14;;;;;;;8.63;5.07;;;15.00;99.90;;;;;;5033044;28;20220;-73
2021/08/05 01:36:43;;;;;;;5.90;5.40;;;15.00;99.90;;;;;;5031709;28;20170;-74
2021/08/05 01:39:09;;;;;;;5.73;5.27;;;15.00;99.90;;;;;;5031839;28;20224;-73
2021/08/05 01:41:37;;;;;;;5.70;5.20;;;15.00;99.90;;;;;;5031693;28;20181;-72
2021/08/05 01:44:07;;;;;;;7.23;5.97;;;15.10;99.90;;;;;;5033850;28;20175;-74
2021/08/05 01:46:33;;;;;;;6.60;5.90;;;15.10;99.90;;;;;;5033704;28;20245;-75
2021/08/05 01:49:00;;;;;;;6.80;6.10;;;15.10;99.90;;;;;;5033287;28;20195;-74
2021/08/05 01:51:27;;;;;;;7.30;6.63;;;15.10;99.90;;;;;;5032509;28;20202;-72
2021/08/05 01:53:53;;;;;;;6.77;6.27;;;15.20;99.90;;;;;;5033049;28;20182;-75
2021/08/05 01:56:24;;;;;;;7.53;6.83;;;15.10;99.90;;;;;;5032841;28;20174;-75
2021/08/05 01:58:51;;;;;;;7.63;6.93;;;15.10;99.90;;;;;;5028899;28;20285;-75
2021/08/05 02:01:20;;;;;;;7.27;6.67;;;15.10;99.90;;;;;;5029621;28;20178;-75
2021/08/05 02:04:19;;;;;;;7.23;6.63;;;15.10;99.90;;;;;;5031378;28;20194;-76
2021/08/05 02:07:03;;;;;;;7.27;6.67;;;15.10;99.90;;;;;;5029665;28;20175;-73
2021/08/05 02:09:34;;;;;;;8.47;7.67;;;15.00;99.90;;;;;;5032236;28;20219;-73
2021/08/05 02:12:00;;;;;;;7.87;7.00;;;14.90;99.90;;;;;;5031483;28;20269;-73
2021/08/05 02:14:29;;;;;;;8.30;7.30;;;15.00;99.90;;;;;;5032753;28;20656;-74
2021/08/05 02:16:55;;;;;;;7.77;7.07;;;15.00;99.90;;;;;;5054794;22;20223;-73
2021/08/05 02:19:22;;;;;;;8.00;7.30;;;14.90;99.90;;;;;;5022915;28;20265;-73
2021/08/05 02:21:50;;;;;;;8.97;7.67;;;15.00;99.90;;;;;;5036253;28;20253;-73
2021/08/05 02:24:17;;;;;;;10.73;8.20;;;15.00;99.90;;;;;;5036546;28;20175;-73
2021/08/05 02:26:43;;;;;;;9.73;8.57;;;15.10;99.90;;;;;;5036293;28;20273;-73
2021/08/05 02:29:11;;;;;;;9.70;8.80;;;15.00;99.90;;;;;;5035132;28;20661;-73
2021/08/05 02:31:37;;;;;;;11.03;8.30;;;15.10;99.90;;;;;;5036238;28;20197;-73
2021/08/05 02:34:05;;;;;;;9.77;7.80;;;15.00;99.90;;;;;;5036336;28;20666;-73
2021/08/05 02:36:32;;;;;;;9.00;8.10;;;15.00;99.90;;;;;;5032934;28;20206;-73
2021/08/05 02:38:58;;;;;;;9.40;8.53;;;15.10;99.90;;;;;;5021827;28;20210;-73
2021/08/05 02:41:25;;;;;;;9.13;8.17;;;15.10;99.90;;;;;;5036161;28;20179;-73
2021/08/05 02:43:51;;;;;;;8.47;7.30;;;15.10;99.90;;;;;;5035990;28;20276;-72
2021/08/05 02:46:17;;;;;;;8.63;7.83;;;15.00;99.90;;;;;;5035998;28;20712;-73
2021/08/05 02:48:45;;;;;;;8.23;7.60;;;14.90;99.90;;;;;;5036005;28;20197;-73
2021/08/05 02:51:11;;;;;;;9.37;7.17;;;15.00;99.90;;;;;;5035976;28;20170;-73
2021/08/05 02:53:37;;;;;;;8.27;7.47;;;15.00;99.90;;;;;;5035825;28;20265;-73
2021/08/05 02:56:03;;;;;;;12.70;7.83;;;15.00;99.90;;;;;;5034463;28;20215;-74
2021/08/05 02:58:29;;;;;;;9.23;8.27;;;15.00;99.90;;;;;;5035711;28;20200;-73
2021/08/05 03:00:55;;;;;;;9.53;7.93;;;14.90;99.90;;;;;;5035905;28;20182;-73
2021/08/05 03:03:24;;;;;;;8.30;7.50;;;14.90;99.90;;;;;;5035614;28;20215;-73
2021/08/05 03:05:54;;;;;;;8.33;7.60;;;15.00;99.90;;;;;;5035617;28;20181;-73
2021/08/05 03:08:20;;;;;;;8.33;7.67;;;15.00;99.90;;;;;;5034387;28;20175;-73
2021/08/05 03:10:46;;;;;;;8.67;7.83;;;15.00;99.90;;;;;;5035485;28;20182;-73
2021/08/05 03:13:12;;;;;;;8.40;7.60;;;14.90;99.90;;;;;;5031153;28;20175;-73
2021/08/05 03:15:37;;;;;;;8.20;7.60;;;14.80;99.90;;;;;;5028402;28;20190;-73
2021/08/05 03:18:03;;;;;;;9.07;8.13;;;14.70;99.90;;;;;;5035169;28;20359;-73
2021/08/05 03:20:29;;;;;;;8.93;8.10;;;14.70;99.90;;;;;;5035750;28;20553;-73
2021/08/05 03:22:57;;;;;;;8.50;7.80;;;14.80;99.90;;;;;;5030936;28;20203;-74
2021/08/05 03:25:22;;;;;;;9.30;8.40;;;14.80;99.90;;;;;;5014596;28;20182;-73
2021/08/05 03:27:48;;;;;;;9.10;8.27;;;14.80;99.90;;;;;;5028570;28;20285;-73
2021/08/05 03:30:14;;;;;;;9.10;8.20;;;14.80;99.90;;;;;;5033204;28;20170;-73
2021/08/05 03:32:39;;;;;;;9.50;7.97;;;14.80;99.90;;;;;;5035146;28;20178;-73
2021/08/05 03:35:05;;;;;;;8.93;8.13;;;14.90;99.90;;;;;;5035019;28;20206;-73
2021/08/05 03:37:31;;;;;;;9.50;8.63;;;14.90;99.90;;;;;;5033753;28;20198;-73
2021/08/05 03:39:57;;;;;;;8.93;8.23;;;14.90;99.90;;;;;;5034964;28;20185;-73
2021/08/05 03:42:22;;;;;;;9.63;8.63;;;14.90;99.90;;;;;;5033566;28;20198;-73
2021/08/05 03:44:50;;;;;;;9.17;8.27;;;14.90;99.90;;;;;;5034385;28;20265;-73
2021/08/05 03:47:16;;;;;;;9.83;8.97;;;14.90;99.90;;;;;;5035063;28;20269;-73
2021/08/05 03:49:42;;;;;;;10.13;8.33;;;14.90;99.90;;;;;;5034838;28;20223;-73
2021/08/05 03:52:10;;;;;;;11.13;9.63;;;14.80;99.90;;;;;;5034746;28;20182;-74
2021/08/05 03:54:36;;;;;;;10.00;9.00;;;14.70;99.90;;;;;;5033513;28;20637;-73
2021/08/05 03:57:02;;;;;;;11.20;9.37;;;14.80;99.90;;;;;;5033284;28;20194;-73
2021/08/05 03:59:28;;;;;;;10.97;9.77;;;14.70;99.90;;;;;;5023254;28;20182;-73
2021/08/05 04:01:53;;;;;;;10.60;9.50;;;14.80;99.90;;;;;;5012594;28;20655;-73
2021/08/05 04:04:19;;;;;;;12.10;9.77;;;14.70;99.90;;;;;;5019851;28;20179;-74
2021/08/05 04:06:44;;;;;;;11.03;9.37;;;14.70;99.90;;;;;;5012340;28;20206;-73
2021/08/05 04:09:10;;;;;;;10.03;9.13;;;14.70;99.90;;;;;;5016720;28;20550;-74
2021/08/05 04:11:36;;;;;;;10.93;9.20;;;14.70;99.90;;;;;;5033336;28;20557;-73
2021/08/05 04:14:01;;;;;;;11.57;9.63;;;14.70;99.90;;;;;;5025684;28;20183;-73
2021/08/05 04:16:27;;;;;;;9.60;8.70;;;14.80;99.90;;;;;;5032083;28;20214;-74
2021/08/05 04:18:52;;;;;;;11.47;9.73;;;14.80;99.90;;;;;;5017898;28;20179;-74
2021/08/05 04:21:18;;;;;;;10.73;9.80;;;14.80;99.90;;;;;;5014251;28;20179;-74
2021/08/05 04:23:44;;;;;;;12.90;10.13;;;14.80;99.90;;;;;;5029809;28;20199;-73
2021/08/05 04:26:10;;;;;;;10.60;9.70;;;14.70;99.90;;;;;;5016775;28;20229;-73
2021/08/05 04:28:35;;;;;;;9.60;8.80;;;14.60;99.90;;;;;;5027582;28;20171;-73
2021/08/05 04:31:01;;;;;;;10.07;9.17;;;14.60;99.90;;;;;;5013538;28;20209;-74
2021/08/05 04:33:27;;;;;;;10.77;9.33;;;14.60;99.90;;;;;;5032935;28;20262;-73
2021/08/05 04:35:53;;;;;;;10.43;9.50;;;14.60;99.90;;;;;;5030161;28;20182;-73
2021/08/05 04:38:19;;;;;;;10.77;9.67;;;14.60;99.90;;;;;;5014010;28;20629;-73
2021/08/05 04:40:45;;;;;;;10.27;9.33;;;14.60;99.90;;;;;;4995446;28;20566;-73
2021/08/05 04:43:10;;;;;;;10.60;8.90;;;14.60;99.90;;;;;;5026624;28;20209;-73
2021/08/05 04:45:36;;;;;;;10.50;9.47;;;14.70;99.90;;;;;;5033319;28;20543;-73
2021/08/05 04:48:03;;;;;;;9.97;8.97;;;14.80;99.90;;;;;;5019023;28;20198;-73
2021/08/05 04:50:31;;;;;;;12.77;9.40;;;14.70;99.90;;;;;;5033458;28;20189;-73
2021/08/05 04:52:59;;;;;;;9.43;8.50;;;14.80;99.90;;;;;;5014717;28;20178;-73
2021/08/05 04:55:25;;;;;;;10.53;9.40;;;14.70;99.90;;;;;;5032152;28;20170;-73
2021/08/05 04:57:55;;;;;;;9.30;8.37;;;14.80;99.90;;;;;;5033406;28;20569;-73
2021/08/05 05:00:29;;;;;;;9.60;8.70;;;14.80;99.90;;;;;;5033740;28;20175;-73
2021/08/05 05:02:55;;;;;;;11.00;9.10;;;14.80;99.90;;;;;;5032352;28;20268;-73
2021/08/05 05:05:22;;;;;;;10.40;9.50;;;14.80;99.90;;;;;;5033360;28;20252;-73
2021/08/05 05:07:48;;;;;;;9.40;8.60;;;14.80;99.90;;;;;;5033278;28;20198;-73
2021/08/05 05:10:15;;;;;;;10.93;10.03;;;14.70;99.90;;;;;;5021332;28;20179;-73
2021/08/05 05:12:41;;;;;;;10.57;9.47;;;14.70;99.90;;;;;;5026953;28;20292;-74
2021/08/05 05:15:09;;;;;;;10.07;9.03;;;14.70;99.90;;;;;;5024489;28;20181;-73
2021/08/05 05:17:35;;;;;;;10.27;9.30;;;14.70;99.90;;;;;;5030705;28;20217;-73
2021/08/05 05:20:02;;;;;;;9.97;8.80;;;14.70;99.90;;;;;;5033044;28;20675;-73
2021/08/05 05:22:27;;;;;;;10.07;9.27;;;14.70;99.90;;;;;;5032899;28;20608;-73
2021/08/05 05:24:53;;;;;;;10.07;9.07;;;14.70;99.90;;;;;;5033339;28;20178;-73
2021/08/05 05:27:18;;;;;;;9.63;8.83;;;14.70;99.90;;;;;;5032218;28;20285;-73
2021/08/05 05:29:44;;;;;;;14.47;9.80;;;14.70;99.90;;;;;;5032565;28;20174;-73
2021/08/05 05:32:10;;;;;;;10.53;9.63;;;14.80;99.90;;;;;;5031152;28;20189;-73
2021/08/05 05:34:36;;;;;;;9.60;8.80;;;14.70;99.90;;;;;;5015979;28;20645;-73
2021/08/05 05:37:02;;;;;;;9.37;8.53;;;14.70;99.90;;;;;;5032908;28;20569;-73
2021/08/05 05:39:27;;;;;;;9.17;8.37;;;14.70;99.90;;;;;;5032800;28;20182;-73
2021/08/05 05:41:53;;;;;;;8.67;7.97;;;14.70;99.90;;;;;;5032850;28;20674;-73
2021/08/05 05:44:19;;;;;;;8.57;7.77;;;14.80;99.90;;;;;;5032804;28;20666;-73
2021/08/05 05:46:45;;;;;;;10.60;9.20;;;14.90;99.90;;;;;;5032682;28;20197;-71
2021/08/05 05:49:11;;;;;;;9.63;8.77;;;14.90;99.90;;;;;;5008206;28;20168;-73
2021/08/05 05:51:37;;;;;;;9.93;9.13;;;14.90;99.90;;;;;;4996898;28;20218;-74
2021/08/05 05:54:03;;;;;;;10.17;8.87;;;14.90;99.90;;;;;;5005707;28;20179;-73
2021/08/05 05:56:28;;;;;;;11.27;9.30;;;15.00;99.90;;;;;;5033107;28;20233;-73
2021/08/05 05:58:54;;;;;;;9.73;8.93;;;14.90;99.90;;;;;;5029655;28;20645;-73
2021/08/05 06:01:19;;;;;;;10.90;9.73;;;14.90;99.90;;;;;;5031119;28;20178;-73
2021/08/05 06:03:45;;;;;;;9.30;8.40;;;15.00;99.90;;;;;;5036772;28;20645;-73
2021/08/05 06:06:10;;;;;;;11.83;9.53;;;15.00;99.90;;;;;;5036682;28;20285;-73
2021/08/05 06:08:36;;;;;;;9.63;8.83;;;15.00;99.90;;;;;;5017794;28;20179;-73
2021/08/05 06:11:02;;;;;;;11.63;10.50;;;15.10;99.90;;;;;;5027499;28;20597;-73
2021/08/05 06:13:27;;;;;;;10.77;9.70;;;15.10;99.90;;;;;;5021598;28;20206;-73
2021/08/05 06:15:53;;;;;;;10.33;9.43;;;15.10;99.90;;;;;;5025504;28;20300;-73
2021/08/05 06:18:19;;;;;;;10.67;9.77;;;15.10;99.90;;;;;;5036492;28;20178;-73
2021/08/05 06:20:44;;;;;;;10.30;9.03;;;15.20;99.90;;;;;;5036588;28;20266;-73
2021/08/05 06:23:10;;;;;;;9.23;8.33;;;15.20;99.90;;;;;;5016283;28;20206;-73
2021/08/05 06:25:36;;;;;;;9.50;8.57;;;15.20;99.90;;;;;;5017753;28;20173;-74
2021/08/05 06:28:03;;;;;;;9.93;8.93;;;15.20;99.90;;;;;;5006176;28;20202;-73
2021/08/05 06:30:29;;;;;;;10.50;9.43;;;15.20;99.90;;;;;;5017159;28;20175;-73
2021/08/05 06:32:55;;;;;;;10.23;9.27;;;15.20;99.90;;;;;;5002240;28;20311;-73
2021/08/05 06:35:20;;;;;;;11.33;10.17;;;15.20;99.90;;;;;;5000265;28;20518;-73
2021/08/05 06:37:47;;;;;;;10.30;9.40;;;15.20;99.90;;;;;;5000509;28;20207;-73
2021/08/05 06:40:13;;;;;;;11.10;9.30;;;15.20;99.90;;;;;;5012401;28;20199;-73
2021/08/05 06:42:39;;;;;;;10.00;9.10;;;15.20;99.90;;;;;;4999081;28;20192;-73
2021/08/05 06:45:07;;;;;;;10.20;9.20;;;15.30;99.90;;;;;;5004641;28;20230;-73
2021/08/05 06:47:33;;;;;;;10.77;9.67;;;15.30;99.90;;;;;;5012464;28;20200;-73
2021/08/05 06:49:59;;;;;;;10.20;9.20;;;15.40;99.90;;;;;;5002131;28;20164;-73
2021/08/05 06:52:25;;;;;;;11.00;10.10;;;15.40;99.90;;;;;;4998395;28;20254;-73
2021/08/05 06:54:50;;;;;;;10.23;9.33;;;15.50;99.90;;;;;;5006420;28;20222;-73
2021/08/05 06:57:16;;;;;;;9.57;8.77;;;15.40;99.90;;;;;;5004633;28;21121;-73
2021/08/05 06:59:42;;;;;;;9.90;9.10;;;15.50;99.90;;;;;;5003364;28;20217;-73
2021/08/05 07:02:08;;;;;;;8.83;7.93;;;15.30;99.90;;;;;;5006405;28;20214;-73
2021/08/05 07:04:34;;;;;;;9.83;8.93;;;15.30;99.90;;;;;;5013579;28;20183;-74
2021/08/05 07:06:59;;;;;;;10.07;9.13;;;15.30;99.90;;;;;;5018676;28;20186;-74
2021/08/05 07:09:25;;;;;;;10.67;9.77;;;15.40;99.90;;;;;;5010576;28;20175;-73
2021/08/05 07:11:51;;;;;;;9.93;9.03;;;15.60;99.90;;;;;;5014254;28;20245;-73
2021/08/05 07:14:16;;;;;;;8.83;8.10;;;15.70;99.90;;;;;;5004236;28;20183;-74
2021/08/05 07:16:42;;;;;;;9.00;8.10;;;15.80;99.90;;;;;;5002219;28;20586;-74
2021/08/05 07:19:08;;;;;;;9.43;7.23;;;15.80;99.90;;;;;;5009366;28;20242;-73
2021/08/05 07:21:33;;;;;;;7.63;7.03;;;15.80;99.90;;;;;;5011398;28;20203;-73
2021/08/05 07:23:59;;;;;;;8.27;7.53;;;15.80;99.90;;;;;;5014117;28;20286;-73
2021/08/05 07:26:25;;;;;;;8.43;7.50;;;15.80;99.90;;;;;;5010764;28;20209;-73
2021/08/05 07:28:51;;;;;;;8.17;7.40;;;15.70;99.90;;;;;;5002295;28;20186;-73
2021/08/05 07:31:16;;;;;;;9.33;7.37;;;15.80;99.90;;;;;;5012473;28;20184;-73
2021/08/05 07:33:43;;;;;;;7.70;7.00;;;15.90;99.90;;;;;;5012651;28;20186;-73
2021/08/05 07:36:09;;;;;;;7.13;6.53;;;15.90;99.90;;;;;;4997820;28;20199;-74
2021/08/05 07:38:35;;;;;;;7.17;6.03;;;15.80;99.90;;;;;;5004812;28;20180;-73
2021/08/05 07:41:01;;;;;;;8.60;6.83;;;15.80;99.90;;;;;;5002079;28;20277;-73
2021/08/05 07:43:27;;;;;;;7.17;6.57;;;15.80;99.90;;;;;;5008456;28;20673;-73
2021/08/05 07:45:53;;;;;;;7.00;6.30;;;15.90;99.90;;;;;;5002147;28;20234;-73
2021/08/05 07:48:19;;;;;;;7.17;6.43;;;15.90;99.90;;;;;;5008757;28;20670;-73
2021/08/05 07:50:45;;;;;;;6.27;5.67;;;16.00;99.90;;;;;;5010070;28;20213;-73
2021/08/05 07:53:10;;;;;;;5.97;5.47;;;16.00;99.90;;;;;;5021555;28;20692;-74
2021/08/05 07:55:36;;;;;;;6.37;5.87;;;16.10;99.90;;;;;;5004493;28;20223;-73
2021/08/05 07:58:02;;;;;;;6.60;6.00;;;16.00;99.90;;;;;;5006174;28;20298;-73
2021/08/05 08:00:27;;;;;;;6.37;5.80;;;16.00;99.90;;;;;;5004544;28;20918;-74
2021/08/05 08:02:53;;;;;;;6.97;6.23;;;16.10;99.90;;;;;;5010960;28;20260;-73
2021/08/05 08:05:18;;;;;;;7.93;6.83;;;16.10;99.90;;;;;;5019676;28;20238;-73
2021/08/05 08:07:44;;;;;;;7.90;7.10;;;16.20;99.90;;;;;;5015273;28;20245;-73
2021/08/05 08:10:11;;;;;;;7.10;6.50;;;16.20;99.90;;;;;;5009035;28;20181;-73
2021/08/05 08:12:37;;;;;;;7.43;6.20;;;16.20;99.90;;;;;;5009958;28;20188;-74
2021/08/05 08:15:04;;;;;;;7.13;6.53;;;16.30;99.90;;;;;;5016893;28;20186;-74
2021/08/05 08:17:29;;;;;;;5.43;5.03;;;16.40;99.90;;;;;;5012083;28;20334;-73
2021/08/05 08:19:55;;;;;;;5.53;5.03;;;16.50;99.90;;;;;;5009584;28;20192;-73
2021/08/05 08:22:21;;;;;;;5.63;5.13;;;16.60;99.90;;;;;;5006713;28;20242;-73
2021/08/05 08:24:46;;;;;;;5.10;4.70;;;16.50;99.90;;;;;;5018719;28;20193;-74
2021/08/05 08:27:12;;;;;;;4.23;3.93;;;16.50;99.90;;;;;;5013217;28;20217;-73
2021/08/05 08:29:37;;;;;;;4.73;4.23;;;16.60;99.90;;;;;;5018954;28;20190;-74
2021/08/05 08:32:03;;;;;;;4.93;4.63;;;16.70;99.90;;;;;;5010210;28;20183;-73
2021/08/05 08:34:29;;;;;;;3.97;3.67;;;16.70;99.90;;;;;;5013214;28;20189;-73
2021/08/05 08:36:55;;;;;;;4.07;3.47;;;16.70;99.90;;;;;;5014472;28;20201;-73
2021/08/05 08:39:22;;;;;;;6.17;3.70;;;16.80;99.90;;;;;;5009383;28;20673;-73
2021/08/05 08:41:48;;;;;;;4.57;4.27;;;16.90;99.90;;;;;;5015652;28;20183;-73
2021/08/05 08:44:14;;;;;;;3.80;3.50;;;17.00;99.90;;;;;;5014963;28;20205;-73
2021/08/05 08:46:41;;;;;;;4.33;3.93;;;17.10;99.90;;;;;;5011979;28;20259;-73
2021/08/05 08:49:08;;;;;;;3.23;3.00;;;17.10;99.90;;;;;;5014677;28;20183;-73
2021/08/05 08:51:34;;;;;;;3.37;3.07;;;17.20;99.90;;;;;;5011674;28;20197;-74
2021/08/05 08:54:09;;;;;;;3.30;2.93;;;17.30;99.90;;;;;;5012937;28;20285;-74
2021/08/05 08:56:37;;;;;;;5.07;2.90;;;17.30;99.90;;;;;;5007295;28;20606;-73
2021/08/05 08:59:03;;;;;;;3.43;3.13;;;17.40;99.90;;;;;;5016436;28;20188;-73
2021/08/05 09:01:30;;;;;;;4.07;2.43;;;17.40;99.90;;;;;;5005974;28;20559;-73
2021/08/05 09:03:55;;;;;;;3.40;2.53;;;17.60;99.90;;;;;;5012283;28;20214;-73
2021/08/05 09:06:21;;;;;;;4.27;2.40;;;17.70;99.90;;;;;;5007324;28;20209;-73
2021/08/05 09:08:49;;;;;;;4.30;1.97;;;17.70;99.90;;;;;;5009426;28;20178;-73
2021/08/05 09:11:15;;;;;;;1.90;1.80;;;17.80;99.90;;;;;;5013328;28;20562;-74
2021/08/05 09:13:41;;;;;;;1.60;1.50;;;17.90;99.90;;;;;;5008722;28;20185;-73
2021/08/05 09:16:29;;;;;;;3.60;2.27;;;17.90;99.90;;;;;;5016278;28;20573;-74
2021/08/05 09:19:06;;;;;;;2.83;2.50;;;17.90;99.90;;;;;;5010485;28;20280;-73
2021/08/05 09:21:32;;;;;;;2.70;2.47;;;18.00;99.90;;;;;;5006883;28;20650;-73
2021/08/05 09:24:09;;;;;;;2.73;2.53;;;18.00;99.90;;;;;;5006597;28;20219;-74
2021/08/05 09:26:46;;;;;;;4.67;2.93;;;18.10;99.90;;;;;;5004657;28;20545;-73
2021/08/05 09:29:18;;;;;;;4.13;2.70;;;18.10;99.90;;;;;;5011686;28;20182;-73
2021/08/05 09:32:01;;;;;;;4.60;3.30;;;18.20;99.90;;;;;;5022651;28;20189;-74
2021/08/05 09:34:39;;;;;;;2.70;2.50;;;18.30;99.90;;;;;;5009681;28;20179;-74
2021/08/05 09:37:16;;;;;;;3.93;3.63;;;18.60;99.90;;;;;;5011892;28;20274;-73
2021/08/05 09:39:45;;;;;;;4.27;3.43;;;18.70;99.90;;;;;;5015418;28;20230;-73
2021/08/05 09:42:13;;;;;;;5.23;3.40;;;18.80;99.90;;;;;;5005666;28;20193;-74
2021/08/05 09:44:38;;;;;;;2.53;2.33;;;18.90;99.90;;;;;;5014626;28;20700;-73
2021/08/05 09:47:06;;;;;;;2.93;2.37;;;19.00;99.90;;;;;;5009637;28;20229;-73
2021/08/05 09:49:34;;;;;;;2.50;2.30;;;19.00;99.90;;;;;;5012466;28;20642;-74
2021/08/05 09:52:02;;;;;;;2.40;2.20;;;19.10;99.90;;;;;;5015863;28;20181;-73
2021/08/05 09:54:38;;;;;;;2.03;1.87;;;19.20;99.90;;;;;;5011588;28;20214;-73
2021/08/05 09:57:06;;;;;;;2.20;2.00;;;19.30;99.90;;;;;;5008510;28;20284;-73
2021/08/05 09:59:32;;;;;;;2.23;2.03;;;19.60;99.90;;;;;;5016235;28;20282;-74
2021/08/05 10:02:05;;;;;;;3.00;2.70;;;19.60;99.90;;;;;;5005812;28;20645;-74
2021/08/05 10:04:35;;;;;;;2.20;2.00;;;19.60;99.90;;;;;;5019409;28;20185;-73
2021/08/05 10:07:07;;;;;;;2.20;2.00;;;19.60;99.90;;;;;;5012672;28;20657;-73
2021/08/05 10:09:34;;;;;;;2.70;2.20;;;19.70;99.90;;;;;;5004793;28;20181;-73
2021/08/05 10:12:13;;;;;;;2.20;1.90;;;19.80;99.90;;;;;;5009705;28;20189;-73
2021/08/05 10:14:40;;;;;;;2.03;1.83;;;19.90;99.90;;;;;;5008348;28;20671;-73
2021/08/05 10:17:07;;;;;;;3.70;1.90;;;20.00;99.90;;;;;;5009575;28;20207;-73
2021/08/05 10:19:43;;;;;;;2.57;2.37;;;19.90;99.90;;;;;;5017637;28;20551;-73
2021/08/05 10:22:12;;;;;;;2.67;2.07;;;20.10;99.90;;;;;;5011830;28;20715;-73
2021/08/05 10:24:41;;;;;;;5.80;4.60;;;20.30;99.90;;;;;;5009623;28;20187;-73
2021/08/05 10:27:09;;;;;;;2.67;2.10;;;20.40;99.90;;;;;;5011422;28;20207;-74
2021/08/05 10:29:36;;;;;;;1.67;1.53;;;20.50;99.90;;;;;;5007342;28;20178;-73
2021/08/05 10:32:06;;;;;;;2.17;1.40;;;20.60;99.90;;;;;;5006027;28;20182;-74
2021/08/05 10:34:34;;;;;;;1.87;1.60;;;20.60;99.90;;;;;;5014670;28;20171;-73
2021/08/05 10:37:01;;;;;;;1.70;1.50;;;20.70;99.90;;;;;;5007556;28;20552;-74
2021/08/05 10:39:28;;;;;;;2.30;2.07;;;20.80;99.90;;;;;;5013802;28;20175;-74
2021/08/05 10:41:58;;;;;;;2.10;1.90;;;20.90;99.90;;;;;;5012051;28;20188;-73
2021/08/05 10:44:28;;;;;;;2.60;2.13;;;21.00;99.90;;;;;;5011736;28;20593;-74
2021/08/05 10:46:59;;;;;;;2.40;2.10;;;21.00;99.90;;;;;;5017355;28;20203;-74
2021/08/05 10:49:26;;;;;;;1.67;1.57;;;21.10;99.90;;;;;;5010244;28;20175;-74
2021/08/05 10:51:52;;;;;;;3.47;1.80;;;21.10;99.90;;;;;;5023051;28;20179;-73
2021/08/05 10:54:46;;;;;;;5.00;2.37;;;21.10;99.90;;;;;;5014299;28;20175;-74
2021/08/05 10:57:15;;;;;;;1.87;1.60;;;21.20;99.90;;;;;;5011731;28;20566;-74
2021/08/05 11:00:14;;;;;;;1.50;1.40;;;21.30;99.90;;;;;;5012375;28;20176;-74
2021/08/05 11:02:52;;;;;;;1.93;1.50;;;21.30;99.90;;;;;;4996873;28;20211;-74
2021/08/05 11:05:24;;;;;;;1.60;1.30;;;21.40;99.90;;;;;;5023930;28;20171;-74
2021/08/05 11:08:15;;;;;;;2.20;1.30;;;21.40;99.90;;;;;;5005436;28;20203;-73
2021/08/05 11:10:41;;;;;;;1.80;1.70;;;21.40;99.90;;;;;;5007439;28;20179;-74
2021/08/05 11:13:07;;;;;;;3.03;1.53;;;21.50;99.90;;;;;;5001134;28;20249;-73
2021/08/05 11:15:35;;;;;;;2.03;1.93;;;;;;;;;;5001280;28;20183;-73
2021/08/05 11:20:38;;;;;;;1.33;1.23;;;21.50;99.90;;;;;;5015261;28;20985;-74
2021/08/05 11:23:04;;;;;;;1.30;1.20;;;21.60;99.90;;;;;;5007169;28;20626;-74
2021/08/05 11:25:59;;;;;;;1.73;1.27;;;21.80;99.90;;;;;;5004658;28;20176;-74
2021/08/05 11:28:32;;;;;;;4.23;1.67;;;21.90;99.90;;;;;;4999562;28;20200;-73
2021/08/05 11:31:02;;;;;;;1.63;1.20;;;22.20;99.90;;;;;;5019163;28;20174;-73
2021/08/05 11:33:36;;;;;;;2.37;1.57;;;22.20;99.90;;;;;;5016402;28;20185;-73
2021/08/05 11:36:31;;;;;;;1.40;1.30;;;22.10;99.90;;;;;;5017686;28;20213;-73
2021/08/05 11:39:11;;;;;;;1.67;1.13;;;21.90;99.90;;;;;;5033139;28;20574;-73
2021/08/05 11:41:39;;;;;;;1.20;1.10;;;21.90;99.90;;;;;;5035151;28;20170;-73
2021/08/05 11:44:31;;;;;;;0.90;0.90;;;21.80;99.90;;;;;;5024139;28;20743;-74
2021/08/05 11:47:06;;;;;;;2.07;1.30;;;21.80;99.90;;;;;;5023992;28;20202;-74
2021/08/05 11:49:45;;;;;;;1.20;1.10;;;21.80;99.90;;;;;;5032069;28;20173;-74
2021/08/05 11:52:19;;;;;;;1.20;1.10;;;21.80;99.90;;;;;;5027911;28;20174;-77
2021/08/05 11:54:48;;;;;;;1.00;1.00;;;21.80;99.90;;;;;;5038231;28;20588;-78
2021/08/05 11:57:16;;;;;;;1.23;1.10;;;21.90;99.90;;;;;;5039187;28;20190;-78
2021/08/05 11:59:44;;;;;;;1.20;1.10;;;21.90;99.90;;;;;;5026039;28;20247;-77
2021/08/05 12:02:11;;;;;;;1.40;1.30;;;21.90;99.90;;;;;;5023545;28;20171;-79
2021/08/05 12:04:38;;;;;;;0.60;0.60;;;22.00;99.90;;;;;;5031976;28;20225;-79
2021/08/05 12:07:27;;;;;;;0.80;0.80;;;22.20;99.90;;;;;;5039330;28;20202;-78
2021/08/05 12:10:05;;;;;;;0.97;0.87;;;22.20;99.90;;;;;;5039569;28;20174;-77
2021/08/05 12:12:41;;;;;;;1.03;0.90;;;22.20;99.90;;;;;;5040425;28;20657;-77
2021/08/05 12:15:09;;;;;;;3.00;0.97;;;22.20;99.90;;;;;;5040268;28;20193;-78
2021/08/05 12:17:36;;;;;;;1.10;0.87;;;22.00;99.90;;;;;;5039612;28;20256;-78
2021/08/05 12:20:30;;;;;;;0.97;0.80;;;22.20;99.90;;;;;;5040425;28;20187;-77
2021/08/05 12:23:01;;;;;;;0.70;0.70;;;22.40;99.90;;;;;;5037509;28;20210;-78
2021/08/05 12:25:40;;;;;;;1.13;1.00;;;22.50;99.90;;;;;;5039759;28;20182;-78
2021/08/05 12:28:10;;;;;;;0.80;0.80;;;22.60;99.90;;;;;;5038226;28;20194;-78
2021/08/05 12:30:37;;;;;;;1.03;0.80;;;22.70;99.90;;;;;;5037970;28;20210;-78
2021/08/05 12:33:07;;;;;;;0.67;0.60;;;22.80;99.90;;;;;;5039734;28;20652;-77
2021/08/05 12:35:33;;;;;;;1.20;1.10;;;22.90;99.90;;;;;;5039776;28;20550;-78
2021/08/05 12:38:09;;;;;;;1.10;0.70;;;23.00;99.90;;;;;;5039935;28;20202;-78
2021/08/05 12:40:38;;;;;;;1.50;1.00;;;22.80;99.90;;;;;;5039578;28;20182;-77
2021/08/05 12:43:06;;;;;;;1.30;1.00;;;22.80;99.90;;;;;;5038703;28;20265;-77
2021/08/05 12:45:34;;;;;;;1.17;0.90;;;22.80;99.90;;;;;;5039151;28;20181;-77
2021/08/05 12:48:02;;;;;;;1.20;1.10;;;22.70;99.90;;;;;;5037673;28;20201;-77
2021/08/05 12:50:28;;;;;;;0.70;0.70;;;22.70;99.90;;;;;;5035783;28;20633;-78
2021/08/05 12:52:54;;;;;;;0.80;0.80;;;22.70;99.90;;;;;;5017568;28;20274;-77
2021/08/05 12:55:20;;;;;;;1.63;0.80;;;22.60;99.90;;;;;;5027366;28;20183;-78